Time;durP1;ratioP1;P1;durP2;ratioP2;P2;SDS_P1;SDS_P2;PMS_P1;PMS_P2;Temp;Humidity;BMP_temperature;BMP_pressure;BME280_temperature;BME280_humidity;BME280_pressure;Samples;Min_cycle;Max_cycle;Signal;HPM_P1;HPM_P2
2023/06/11 00:00:26;;;;;;;7.25;4.70;;;24.80;50.10;;;;;;5081789;27;20052;-67
2023/06/11 00:02:54;;;;;;;5.97;5.18;;;24.70;50.50;;;;;;5088949;28;20067;-67
2023/06/11 00:05:24;;;;;;;7.75;4.80;;;24.60;50.90;;;;;;5078610;28;20031;-68
2023/06/11 00:07:51;;;;;;;6.50;5.23;;;24.60;51.00;;;;;;5079029;28;20109;-67
2023/06/11 00:10:16;;;;;;;7.55;5.32;;;24.50;51.30;;;;;;5089365;28;20024;-68
2023/06/11 00:12:42;;;;;;;5.03;4.40;;;24.50;51.90;;;;;;5098156;28;20035;-68
2023/06/11 00:15:08;;;;;;;6.18;5.18;;;24.40;51.70;;;;;;5080053;28;20399;-67
2023/06/11 00:17:34;;;;;;;7.63;5.80;;;24.40;52.00;;;;;;5097899;28;20024;-68
2023/06/11 00:20:09;;;;;;;8.10;5.60;;;24.30;52.10;;;;;;5087280;28;20020;-68
2023/06/11 00:22:35;;;;;;;6.75;5.20;;;24.30;52.30;;;;;;5092151;28;20035;-67
2023/06/11 00:25:00;;;;;;;7.25;5.88;;;24.30;52.60;;;;;;5099358;28;20364;-67
2023/06/11 00:27:26;;;;;;;8.60;5.60;;;24.20;52.70;;;;;;5086061;28;20057;-67
2023/06/11 00:29:53;;;;;;;7.85;5.90;;;24.20;52.80;;;;;;5093722;28;20032;-67
2023/06/11 00:32:19;;;;;;;5.70;4.90;;;24.20;53.00;;;;;;5098648;28;20023;-67
2023/06/11 00:34:45;;;;;;;8.02;5.43;;;24.10;53.00;;;;;;5090195;28;20028;-68
2023/06/11 00:37:11;;;;;;;6.25;5.40;;;24.10;53.20;;;;;;5085035;28;20028;-68
2023/06/11 00:39:37;;;;;;;7.97;5.65;;;24.10;53.50;;;;;;5075044;28;20021;-68
2023/06/11 00:42:02;;;;;;;7.25;5.85;;;24.00;53.70;;;;;;5075002;28;20039;-68
2023/06/11 00:44:29;;;;;;;6.88;5.65;;;23.90;54.10;;;;;;5077245;28;20059;-68
2023/06/11 00:46:57;;;;;;;6.90;5.25;;;23.90;54.10;;;;;;5078007;28;20036;-67
2023/06/11 00:49:23;;;;;;;7.05;5.40;;;23.90;54.10;;;;;;5075629;28;20059;-67
2023/06/11 00:51:49;;;;;;;7.85;5.30;;;23.80;54.30;;;;;;5074460;28;20021;-67
2023/06/11 00:54:18;;;;;;;6.75;5.38;;;23.80;54.50;;;;;;5074778;28;20086;-67
2023/06/11 00:56:44;;;;;;;8.80;5.40;;;23.70;54.60;;;;;;5077351;28;20486;-67
2023/06/11 00:59:11;;;;;;;8.25;5.20;;;23.70;54.60;;;;;;5081337;28;20036;-68
2023/06/11 01:02:01;;;;;;;5.75;4.72;;;23.80;54.60;;;;;;5083159;28;20021;-67
2023/06/11 01:04:32;;;;;;;7.07;5.30;;;23.70;54.40;;;;;;5097093;28;20059;-67
2023/06/11 01:07:00;;;;;;;8.55;6.57;;;23.70;54.70;;;;;;5095695;28;20049;-68
2023/06/11 01:09:28;;;;;;;7.13;5.55;;;23.60;55.10;;;;;;5088721;28;20493;-68
2023/06/11 01:11:58;;;;;;;7.07;5.80;;;23.50;55.00;;;;;;5091824;28;20028;-69
2023/06/11 01:14:23;;;;;;;7.07;6.05;;;23.50;55.20;;;;;;5099044;28;20030;-70
2023/06/11 01:17:02;;;;;;;7.15;5.97;;;23.50;55.40;;;;;;5078680;28;20020;-68
2023/06/11 01:19:37;;;;;;;6.90;5.88;;;23.40;55.50;;;;;;5074175;28;20033;-68
2023/06/11 01:22:13;;;;;;;10.02;6.05;;;23.40;55.60;;;;;;5074572;28;20032;-69
2023/06/11 01:25:04;;;;;;;7.65;6.28;;;23.40;55.90;;;;;;5095709;28;20075;-69
2023/06/11 01:27:31;;;;;;;;;;;23.30;55.90;;;;;;5066343;28;20070;-68
2023/06/11 01:29:58;;;;;;;5.95;5.32;;;23.30;55.80;;;;;;5074944;28;19920;-68
2023/06/11 01:32:25;;;;;;;8.38;5.78;;;23.30;56.00;;;;;;5077687;28;20544;-68
2023/06/11 01:35:01;;;;;;;6.43;5.47;;;23.30;56.00;;;;;;5074920;28;20093;-69
2023/06/11 01:37:29;;;;;;;7.82;5.80;;;23.30;56.00;;;;;;5077245;28;20012;-68
2023/06/11 01:39:55;;;;;;;6.45;5.70;;;23.20;56.00;;;;;;5078173;28;20027;-69
2023/06/11 01:42:21;;;;;;;7.15;5.47;;;23.20;56.10;;;;;;5075806;28;20097;-68
2023/06/11 01:44:46;;;;;;;5.95;5.18;;;23.20;56.20;;;;;;5074491;28;20487;-68
2023/06/11 01:47:12;;;;;;;6.25;5.30;;;23.10;56.30;;;;;;5088624;28;20149;-68
2023/06/11 01:49:37;;;;;;;7.00;5.32;;;23.10;56.20;;;;;;5090409;28;20024;-68
2023/06/11 01:52:03;;;;;;;7.07;5.30;;;23.10;56.30;;;;;;5081905;28;20086;-68
2023/06/11 01:54:29;;;;;;;6.93;6.07;;;23.10;56.40;;;;;;5090143;28;20429;-68
2023/06/11 01:56:55;;;;;;;7.80;5.78;;;23.10;56.70;;;;;;5087895;28;20535;-68
2023/06/11 01:59:21;;;;;;;6.20;5.38;;;23.00;56.80;;;;;;5094750;28;20031;-68
2023/06/11 02:01:52;;;;;;;7.57;5.32;;;23.00;56.50;;;;;;5082298;28;20024;-68
2023/06/11 02:04:21;;;;;;;5.82;5.22;;;23.10;56.60;;;;;;5089066;28;20016;-68
2023/06/11 02:06:47;;;;;;;6.43;5.53;;;23.00;56.80;;;;;;5090363;28;20024;-68
2023/06/11 02:09:13;;;;;;;6.18;5.57;;;22.90;56.80;;;;;;5088944;28;20027;-68
2023/06/11 02:11:39;;;;;;;6.28;5.50;;;22.90;56.90;;;;;;5101844;28;20493;-68
2023/06/11 02:14:04;;;;;;;6.63;5.00;;;22.90;57.10;;;;;;5094704;28;20102;-68
2023/06/11 02:16:30;;;;;;;6.18;5.57;;;22.80;56.90;;;;;;5090670;28;20095;-68
2023/06/11 02:18:55;;;;;;;7.18;6.13;;;22.80;57.20;;;;;;5085789;28;20039;-68
2023/06/11 02:21:21;;;;;;;7.20;5.65;;;22.80;57.50;;;;;;5087443;28;20038;-67
2023/06/11 02:23:46;;;;;;;7.32;5.45;;;22.70;57.70;;;;;;5082881;28;20020;-67
2023/06/11 02:26:12;;;;;;;6.38;5.72;;;22.70;57.70;;;;;;5088906;28;20024;-68
2023/06/11 02:28:38;;;;;;;6.15;5.55;;;22.60;57.80;;;;;;5080855;28;20036;-67
2023/06/11 02:31:03;;;;;;;7.22;5.28;;;22.50;57.80;;;;;;5093893;28;20043;-68
2023/06/11 02:33:29;;;;;;;7.18;5.38;;;22.50;57.90;;;;;;5091227;28;20024;-68
2023/06/11 02:35:54;;;;;;;6.95;6.00;;;22.50;58.00;;;;;;5084440;28;20035;-68
2023/06/11 02:38:20;;;;;;;7.25;5.78;;;22.40;58.00;;;;;;5083519;28;20028;-68
2023/06/11 02:40:45;;;;;;;6.95;5.57;;;22.30;58.20;;;;;;5090183;28;20030;-67
2023/06/11 02:43:11;;;;;;;8.13;6.30;;;22.30;58.30;;;;;;5091097;28;20020;-68
2023/06/11 02:45:37;;;;;;;7.55;5.65;;;22.30;58.60;;;;;;5089474;28;20130;-69
2023/06/11 02:48:02;;;;;;;6.18;5.57;;;22.20;58.50;;;;;;5092202;28;20050;-68
2023/06/11 02:50:28;;;;;;;6.38;5.47;;;22.20;58.30;;;;;;5096828;28;20035;-69
2023/06/11 02:52:53;;;;;;;6.30;5.70;;;22.20;58.30;;;;;;5080044;28;20418;-69
2023/06/11 02:55:19;;;;;;;7.00;5.55;;;22.20;58.60;;;;;;5087280;28;20039;-68
2023/06/11 02:57:44;;;;;;;6.60;5.68;;;22.20;58.50;;;;;;5097482;28;20055;-68
2023/06/11 03:00:11;;;;;;;6.78;5.55;;;22.20;58.50;;;;;;5084727;28;20077;-69
2023/06/11 03:02:37;;;;;;;6.63;5.30;;;22.10;58.50;;;;;;5092546;28;20031;-67
2023/06/11 03:05:02;;;;;;;7.65;5.70;;;22.10;58.50;;;;;;5090742;28;20081;-68
2023/06/11 03:07:28;;;;;;;7.80;5.82;;;22.10;58.50;;;;;;5090345;28;20031;-68
2023/06/11 03:09:54;;;;;;;6.78;5.80;;;22.10;58.50;;;;;;5085066;28;20241;-68
2023/06/11 03:12:20;;;;;;;6.20;5.32;;;22.00;58.80;;;;;;5089264;28;20027;-68
2023/06/11 03:14:46;;;;;;;5.95;4.55;;;21.90;58.70;;;;;;5091200;28;20020;-68
2023/06/11 03:17:11;;;;;;;7.15;6.10;;;22.00;58.70;;;;;;5089134;28;20020;-69
2023/06/11 03:19:37;;;;;;;6.28;5.68;;;21.90;58.80;;;;;;5082492;28;20463;-71
2023/06/11 03:22:03;;;;;;;7.53;5.47;;;21.90;58.90;;;;;;5088405;28;20028;-69
2023/06/11 03:24:28;;;;;;;6.93;5.95;;;21.90;58.90;;;;;;5096758;28;20759;-70
2023/06/11 03:26:54;;;;;;;7.20;5.95;;;21.90;58.90;;;;;;5090277;28;20483;-69
2023/06/11 03:29:19;;;;;;;6.43;5.80;;;21.90;58.90;;;;;;5094588;28;20487;-68
2023/06/11 03:31:45;;;;;;;6.10;5.50;;;21.80;59.00;;;;;;5084191;28;20035;-68
2023/06/11 03:34:10;;;;;;;6.28;5.68;;;21.80;59.10;;;;;;5089023;28;20023;-69
2023/06/11 03:36:36;;;;;;;6.03;5.43;;;21.80;59.10;;;;;;5083070;28;20077;-69
2023/06/11 03:39:02;;;;;;;6.63;5.93;;;21.80;59.10;;;;;;5086686;28;20020;-69
2023/06/11 03:41:28;;;;;;;6.18;5.22;;;21.80;59.20;;;;;;5089152;28;20034;-69
2023/06/11 03:43:53;;;;;;;9.00;5.60;;;21.80;59.20;;;;;;5093305;28;20023;-69
2023/06/11 03:46:21;;;;;;;5.78;4.80;;;21.80;59.20;;;;;;5089678;28;20066;-69
2023/06/11 03:48:46;;;;;;;7.90;5.90;;;21.80;59.20;;;;;;5101898;28;20019;-70
2023/06/11 03:51:12;;;;;;;6.13;5.47;;;21.70;59.30;;;;;;5089023;28;20580;-69
2023/06/11 03:53:38;;;;;;;8.40;5.60;;;21.70;59.30;;;;;;5095591;28;20026;-69
2023/06/11 03:56:04;;;;;;;6.70;5.30;;;21.70;59.20;;;;;;5092166;28;20016;-69
2023/06/11 03:58:29;;;;;;;7.15;5.72;;;21.70;59.10;;;;;;5082115;28;20024;-69
2023/06/11 04:00:55;;;;;;;5.65;5.05;;;21.80;59.10;;;;;;5086360;28;20020;-69
2023/06/11 04:03:21;;;;;;;6.25;5.53;;;21.80;59.00;;;;;;5092318;28;20038;-69
2023/06/11 04:05:46;;;;;;;6.05;5.20;;;21.80;59.00;;;;;;5083981;28;20036;-70
2023/06/11 04:08:12;;;;;;;6.30;5.70;;;21.80;59.00;;;;;;5086518;28;20080;-69
2023/06/11 04:10:37;;;;;;;6.38;5.35;;;21.80;59.20;;;;;;5090851;28;20028;-69
2023/06/11 04:13:03;;;;;;;6.95;5.40;;;21.70;59.20;;;;;;5092349;28;20032;-69
2023/06/11 04:15:29;;;;;;;5.78;5.20;;;21.70;59.20;;;;;;5079314;28;20082;-69
2023/06/11 04:17:55;;;;;;;6.18;5.22;;;21.70;59.30;;;;;;5092658;28;20089;-68
2023/06/11 04:20:21;;;;;;;6.38;5.03;;;21.70;59.20;;;;;;5096666;28;20481;-70
2023/06/11 04:22:46;;;;;;;6.07;5.47;;;21.80;59.30;;;;;;5091894;28;20036;-69
2023/06/11 04:25:12;;;;;;;6.35;5.72;;;21.80;59.30;;;;;;5094021;28;20116;-68
2023/06/11 04:27:38;;;;;;;6.43;5.75;;;21.80;59.30;;;;;;5093203;28;20051;-68
2023/06/11 04:30:05;;;;;;;6.55;4.88;;;21.80;59.30;;;;;;5085302;28;20028;-68
2023/06/11 04:32:34;;;;;;;6.60;5.82;;;21.80;59.20;;;;;;5083950;28;20030;-68
2023/06/11 04:35:03;;;;;;;6.93;6.22;;;21.70;59.40;;;;;;5099139;28;20024;-68
2023/06/11 04:37:30;;;;;;;6.25;5.40;;;21.70;59.70;;;;;;5088825;28;20024;-69
2023/06/11 04:40:09;;;;;;;6.82;5.68;;;21.70;59.60;;;;;;5091556;28;20538;-70
2023/06/11 04:42:35;;;;;;;6.63;5.88;;;21.80;59.60;;;;;;5088204;28;20023;-69
2023/06/11 04:45:02;;;;;;;8.10;6.10;;;21.80;59.50;;;;;;5089385;28;20027;-70
2023/06/11 04:47:32;;;;;;;7.15;5.70;;;21.80;59.60;;;;;;5093071;28;20070;-70
2023/06/11 04:50:02;;;;;;;7.47;5.30;;;21.70;59.60;;;;;;5102330;28;20028;-68
2023/06/11 04:52:31;;;;;;;9.43;6.63;;;21.90;59.60;;;;;;5083258;28;20059;-68
2023/06/11 04:54:57;;;;;;;8.13;6.13;;;22.30;58.90;;;;;;5089777;28;20117;-67
2023/06/11 04:57:23;;;;;;;6.70;5.88;;;22.60;58.10;;;;;;5093453;28;20347;-67
2023/06/11 04:59:50;;;;;;;6.07;5.43;;;22.90;57.40;;;;;;5103593;28;20026;-67
2023/06/11 05:02:16;;;;;;;6.97;5.90;;;23.30;56.70;;;;;;5087631;28;20498;-67
2023/06/11 05:04:41;;;;;;;6.53;5.32;;;23.50;56.00;;;;;;5092487;28;20470;-67
2023/06/11 05:07:07;;;;;;;7.53;6.13;;;23.70;55.50;;;;;;5089056;28;20049;-68
2023/06/11 05:09:33;;;;;;;6.78;5.40;;;23.80;55.30;;;;;;5091730;28;20028;-68
2023/06/11 05:11:58;;;;;;;5.65;5.05;;;24.00;55.00;;;;;;5090547;28;20032;-69
2023/06/11 05:14:24;;;;;;;6.43;5.75;;;24.30;54.50;;;;;;5090312;28;20032;-68
2023/06/11 05:16:52;;;;;;;7.78;6.60;;;24.50;54.10;;;;;;5095791;28;20016;-68
2023/06/11 05:19:18;;;;;;;6.45;5.70;;;24.60;53.60;;;;;;5096471;28;20099;-67
2023/06/11 05:21:43;;;;;;;6.40;5.72;;;24.70;53.50;;;;;;5086270;28;20151;-67
2023/06/11 05:24:18;;;;;;;6.57;5.18;;;24.70;53.40;;;;;;5094500;28;20024;-67
2023/06/11 05:26:43;;;;;;;6.22;5.63;;;24.60;53.40;;;;;;5090518;28;20081;-68
2023/06/11 05:29:10;;;;;;;5.13;4.63;;;24.50;53.50;;;;;;5092953;28;20383;-69
2023/06/11 05:31:35;;;;;;;6.45;5.55;;;24.80;53.60;;;;;;5095370;28;20020;-68
2023/06/11 05:34:02;;;;;;;7.10;5.70;;;25.00;53.20;;;;;;5086962;28;20383;-68
2023/06/11 05:36:27;;;;;;;6.28;5.43;;;24.90;53.10;;;;;;5088211;28;20020;-68
2023/06/11 05:38:53;;;;;;;6.70;5.63;;;25.00;53.30;;;;;;5086458;28;20108;-68
2023/06/11 05:41:20;;;;;;;6.88;6.15;;;25.00;53.00;;;;;;5094518;28;20028;-68
2023/06/11 05:43:46;;;;;;;9.18;5.40;;;24.90;53.30;;;;;;5089170;28;20458;-68
2023/06/11 05:46:13;;;;;;;5.78;5.18;;;25.00;53.40;;;;;;5094659;28;20457;-69
2023/06/11 05:48:39;;;;;;;7.47;5.63;;;25.10;53.40;;;;;;5093264;28;20054;-68
2023/06/11 05:51:04;;;;;;;5.82;5.28;;;25.10;53.30;;;;;;5091456;28;20028;-68
2023/06/11 05:53:30;;;;;;;6.50;5.80;;;25.20;53.20;;;;;;5086551;28;20023;-68
2023/06/11 05:55:55;;;;;;;6.47;5.75;;;25.10;53.10;;;;;;5095599;28;20103;-68
2023/06/11 05:58:22;;;;;;;6.90;6.03;;;25.10;53.30;;;;;;5088488;28;20039;-69
2023/06/11 06:00:47;;;;;;;6.40;5.07;;;25.10;53.40;;;;;;5097646;28;20055;-66
2023/06/11 06:03:13;;;;;;;7.30;6.03;;;25.10;53.30;;;;;;5092650;28;20074;-68
2023/06/11 06:05:38;;;;;;;6.18;5.50;;;25.10;53.20;;;;;;5091950;28;20036;-67
2023/06/11 06:08:04;;;;;;;7.50;6.05;;;24.90;53.50;;;;;;5080700;28;20078;-68
2023/06/11 06:10:30;;;;;;;5.80;5.30;;;24.90;53.80;;;;;;5092722;28;20031;-68
2023/06/11 06:12:55;;;;;;;5.90;5.30;;;24.90;54.00;;;;;;5083863;28;20055;-68
2023/06/11 06:15:21;;;;;;;6.80;5.43;;;25.10;53.90;;;;;;5094925;28;20016;-68
2023/06/11 06:17:46;;;;;;;6.60;5.82;;;25.20;53.70;;;;;;5086585;28;20023;-69
2023/06/11 06:20:12;;;;;;;6.05;5.20;;;25.10;53.50;;;;;;5096811;28;20020;-69
2023/06/11 06:22:38;;;;;;;6.32;5.28;;;25.10;53.80;;;;;;5086149;28;20055;-69
2023/06/11 06:25:05;;;;;;;8.02;6.30;;;25.20;53.70;;;;;;5079634;28;20509;-69
2023/06/11 06:27:31;;;;;;;6.00;5.40;;;25.10;53.50;;;;;;5090214;28;20023;-68
2023/06/11 06:29:57;;;;;;;6.55;5.82;;;25.10;53.80;;;;;;5088279;28;20142;-68
2023/06/11 06:32:23;;;;;;;6.38;5.65;;;25.20;53.80;;;;;;5088627;28;20098;-68
2023/06/11 06:34:48;;;;;;;8.15;5.85;;;25.30;53.60;;;;;;5082914;28;20016;-68
2023/06/11 06:37:14;;;;;;;7.03;6.32;;;25.30;53.50;;;;;;5084997;28;20078;-68
2023/06/11 06:39:40;;;;;;;10.32;6.13;;;25.30;53.60;;;;;;5089017;28;20023;-67
2023/06/11 06:42:06;;;;;;;7.80;5.65;;;25.40;53.60;;;;;;5083213;28;20033;-67
2023/06/11 06:44:32;;;;;;;7.80;5.68;;;25.60;53.60;;;;;;5090917;28;20022;-67
2023/06/11 06:46:57;;;;;;;7.45;6.65;;;25.70;53.40;;;;;;5092016;28;20108;-68
2023/06/11 06:49:23;;;;;;;7.05;5.93;;;25.60;53.10;;;;;;5099189;28;20047;-67
2023/06/11 06:51:49;;;;;;;7.35;5.93;;;25.60;53.30;;;;;;5092900;28;20158;-67
2023/06/11 06:54:16;;;;;;;7.38;5.95;;;25.70;53.50;;;;;;5089103;28;20035;-68
2023/06/11 06:56:42;;;;;;;6.20;5.60;;;25.70;53.50;;;;;;5088516;28;20471;-67
2023/06/11 06:59:07;;;;;;;6.80;6.00;;;25.80;53.70;;;;;;5096625;28;20028;-67
2023/06/11 07:01:33;;;;;;;6.18;5.57;;;25.90;53.50;;;;;;5086104;28;20073;-68
2023/06/11 07:03:58;;;;;;;6.25;5.65;;;26.10;53.40;;;;;;5093525;28;20482;-67
2023/06/11 07:06:25;;;;;;;6.20;5.60;;;26.30;53.10;;;;;;5082417;28;20474;-68
2023/06/11 07:08:51;;;;;;;7.25;6.05;;;26.50;52.60;;;;;;5074407;28;20028;-68
2023/06/11 07:11:17;;;;;;;6.43;5.75;;;26.70;52.40;;;;;;5083376;28;20039;-68
2023/06/11 07:13:43;;;;;;;5.53;5.03;;;26.80;52.10;;;;;;5086570;28;20482;-68
2023/06/11 07:16:08;;;;;;;8.38;5.93;;;27.00;52.00;;;;;;5076957;28;20068;-68
2023/06/11 07:18:34;;;;;;;7.10;5.72;;;27.20;51.80;;;;;;5083842;28;20032;-68
2023/06/11 07:20:59;;;;;;;6.95;5.75;;;27.10;51.80;;;;;;5084424;28;20028;-67
2023/06/11 07:23:25;;;;;;;6.50;5.30;;;27.10;51.90;;;;;;5084423;28;20036;-67
2023/06/11 07:25:51;;;;;;;6.90;5.60;;;27.10;51.80;;;;;;5088003;28;20050;-67
2023/06/11 07:28:16;;;;;;;5.20;4.70;;;27.30;51.70;;;;;;5080040;28;20028;-67
2023/06/11 07:30:42;;;;;;;7.00;5.40;;;27.50;51.30;;;;;;5074507;28;20024;-66
2023/06/11 07:33:08;;;;;;;5.80;5.20;;;27.70;51.10;;;;;;5077575;28;20032;-68
2023/06/11 07:35:34;;;;;;;6.40;5.80;;;27.80;50.90;;;;;;5086111;28;20020;-67
2023/06/11 07:38:00;;;;;;;6.45;5.65;;;27.90;50.30;;;;;;5083039;28;20592;-67
2023/06/11 07:40:25;;;;;;;6.43;5.68;;;27.80;50.50;;;;;;5084628;28;20058;-67
2023/06/11 07:42:51;;;;;;;5.65;4.95;;;27.80;50.00;;;;;;5083096;28;20036;-67
2023/06/11 07:45:17;;;;;;;6.15;5.50;;;27.70;50.20;;;;;;5098495;28;20094;-67
2023/06/11 07:47:42;;;;;;;6.03;5.15;;;27.90;50.00;;;;;;5095559;28;20036;-67
2023/06/11 07:50:09;;;;;;;6.80;5.30;;;28.00;49.70;;;;;;5079173;28;20103;-67
2023/06/11 07:52:35;;;;;;;5.75;5.05;;;28.00;49.10;;;;;;5074089;28;20036;-68
2023/06/11 07:55:01;;;;;;;10.77;5.32;;;28.00;49.20;;;;;;5090617;28;20134;-67
2023/06/11 07:57:27;;;;;;;7.15;5.43;;;28.20;49.20;;;;;;5086180;28;20381;-68
2023/06/11 07:59:53;;;;;;;6.30;5.70;;;28.30;49.10;;;;;;5085713;28;20021;-67
2023/06/11 08:02:19;;;;;;;6.00;5.13;;;28.40;48.90;;;;;;5080111;28;20024;-68
2023/06/11 08:04:44;;;;;;;8.93;5.25;;;28.50;48.90;;;;;;5081825;28;20033;-68
2023/06/11 08:07:10;;;;;;;5.50;5.00;;;28.50;48.70;;;;;;5082174;28;20020;-67
2023/06/11 08:09:37;;;;;;;5.50;5.00;;;28.60;48.60;;;;;;5080830;28;20032;-67
2023/06/11 08:12:04;;;;;;;6.00;5.10;;;28.70;48.50;;;;;;5084434;28;20032;-67
2023/06/11 08:14:29;;;;;;;5.75;5.15;;;28.80;48.30;;;;;;5088749;28;20615;-67
2023/06/11 08:16:55;;;;;;;7.00;5.32;;;28.70;48.30;;;;;;5092728;28;20024;-68
2023/06/11 08:19:22;;;;;;;6.65;5.93;;;28.60;48.60;;;;;;5084624;28;20032;-68
2023/06/11 08:21:47;;;;;;;5.25;4.75;;;28.70;48.10;;;;;;5090357;28;20027;-68
2023/06/11 08:24:15;;;;;;;5.82;4.97;;;28.70;48.50;;;;;;5078141;28;20390;-67
2023/06/11 08:26:41;;;;;;;5.57;5.00;;;28.90;48.30;;;;;;5086819;28;20043;-67
2023/06/11 08:29:07;;;;;;;5.75;5.15;;;28.90;48.00;;;;;;5079255;28;20024;-68
2023/06/11 08:31:33;;;;;;;5.75;4.82;;;29.00;48.20;;;;;;5084422;28;20031;-68
2023/06/11 08:33:59;;;;;;;6.30;5.38;;;29.10;47.90;;;;;;5085087;28;20057;-69
2023/06/11 08:36:25;;;;;;;5.55;5.03;;;29.10;47.60;;;;;;5085520;28;20036;-66
2023/06/11 08:38:51;;;;;;;6.10;5.20;;;29.30;47.90;;;;;;5082094;28;20021;-68
2023/06/11 08:41:17;;;;;;;6.68;5.20;;;29.30;47.60;;;;;;5087561;28;20493;-68
2023/06/11 08:43:43;;;;;;;6.35;5.30;;;29.30;47.60;;;;;;5081883;28;20047;-67
2023/06/11 08:46:13;;;;;;;5.70;5.10;;;29.30;47.30;;;;;;5084841;28;20077;-69
2023/06/11 08:48:41;;;;;;;6.93;5.40;;;29.10;47.30;;;;;;5080959;28;20032;-68
2023/06/11 08:51:10;;;;;;;6.13;4.80;;;29.00;48.00;;;;;;5084793;28;20093;-68
2023/06/11 08:53:36;;;;;;;5.40;4.90;;;29.10;48.10;;;;;;5082157;28;20020;-69
2023/06/11 08:56:02;;;;;;;6.75;5.13;;;29.30;48.10;;;;;;5086636;28;20401;-68
2023/06/11 08:58:32;;;;;;;6.32;5.22;;;29.40;47.60;;;;;;5092588;28;20016;-69
2023/06/11 09:00:57;;;;;;;7.05;5.65;;;29.60;47.90;;;;;;5084212;28;20444;-69
2023/06/11 09:03:23;;;;;;;7.25;5.28;;;29.50;47.10;;;;;;5089672;28;20024;-69
2023/06/11 09:05:50;;;;;;;6.80;4.90;;;29.50;47.10;;;;;;5089387;28;20027;-69
2023/06/11 09:08:16;;;;;;;5.95;5.07;;;29.60;46.90;;;;;;5087931;28;20036;-69
2023/06/11 09:10:49;;;;;;;6.78;5.10;;;29.70;46.60;;;;;;5088763;28;20569;-69
2023/06/11 09:13:16;;;;;;;8.18;5.35;;;29.80;46.90;;;;;;5089004;28;20031;-69
2023/06/11 09:15:49;;;;;;;6.75;5.10;;;29.90;46.50;;;;;;5083512;28;20027;-69
2023/06/11 09:18:19;;;;;;;5.45;4.88;;;29.70;46.40;;;;;;5092656;28;20028;-69
2023/06/11 09:21:03;;;;;;;7.43;5.05;;;29.70;46.40;;;;;;5084511;28;20029;-69
2023/06/11 09:23:34;;;;;;;6.55;4.90;;;29.80;46.50;;;;;;5090701;28;20040;-69
2023/06/11 09:26:00;;;;;;;6.27;5.30;;;29.90;46.70;;;;;;5090555;28;20040;-69
2023/06/11 09:28:36;;;;;;;5.10;4.60;;;30.00;46.10;;;;;;5086618;28;20286;-70
2023/06/11 09:31:03;;;;;;;8.15;5.05;;;30.00;45.90;;;;;;5085669;28;20055;-70
2023/06/11 09:33:31;;;;;;;5.85;4.93;;;30.00;46.10;;;;;;5090202;28;20038;-69
2023/06/11 09:36:00;;;;;;;7.07;5.30;;;30.10;45.90;;;;;;5085828;28;20154;-69
2023/06/11 09:38:26;;;;;;;6.60;5.20;;;29.90;45.90;;;;;;5087943;28;20089;-72
2023/06/11 09:40:54;;;;;;;4.85;4.40;;;29.90;46.10;;;;;;5091570;28;20078;-70
2023/06/11 09:43:21;;;;;;;6.75;5.40;;;30.00;46.40;;;;;;5085501;28;21545;-70
2023/06/11 09:45:52;;;;;;;8.35;5.80;;;30.20;46.00;;;;;;5089060;28;20035;-70
2023/06/11 09:48:19;;;;;;;7.47;5.13;;;30.30;45.50;;;;;;5088491;28;20034;-70
2023/06/11 09:50:46;;;;;;;5.57;5.00;;;30.10;45.00;;;;;;5087418;28;20034;-70
2023/06/11 09:53:14;;;;;;;5.07;4.28;;;30.00;45.40;;;;;;5097658;28;20102;-70
2023/06/11 09:55:41;;;;;;;7.43;4.80;;;30.20;45.20;;;;;;5086713;28;20032;-70
2023/06/11 09:58:08;;;;;;;5.57;4.63;;;30.20;44.90;;;;;;5093504;28;20132;-70
2023/06/11 10:00:35;;;;;;;5.30;4.80;;;30.40;45.00;;;;;;5084885;28;20069;-70
2023/06/11 10:03:01;;;;;;;5.85;4.88;;;30.40;44.80;;;;;;5092172;28;20027;-69
2023/06/11 10:05:28;;;;;;;5.20;4.70;;;30.50;44.50;;;;;;5087868;28;20073;-70
2023/06/11 10:08:01;;;;;;;5.80;4.63;;;30.60;44.30;;;;;;5090030;28;20081;-70
2023/06/11 10:10:27;;;;;;;6.00;5.13;;;30.80;43.80;;;;;;5091603;28;20459;-70
2023/06/11 10:12:53;;;;;;;7.60;4.80;;;30.80;43.30;;;;;;5088676;28;20028;-69
2023/06/11 10:15:23;;;;;;;5.65;4.70;;;30.50;43.60;;;;;;5083404;28;20053;-68
2023/06/11 10:17:51;;;;;;;5.57;4.50;;;30.50;43.40;;;;;;5090438;28;20065;-68
2023/06/11 10:20:35;;;;;;;6.60;4.68;;;30.60;43.80;;;;;;5084902;28;20433;-67
2023/06/11 10:23:10;;;;;;;5.00;4.10;;;30.50;41.90;;;;;;5089245;28;20429;-68
2023/06/11 10:25:40;;;;;;;4.88;4.10;;;30.50;42.20;;;;;;5082975;28;20028;-69
2023/06/11 10:28:07;;;;;;;5.07;4.30;;;30.80;42.20;;;;;;5085635;28;20028;-68
2023/06/11 10:30:34;;;;;;;6.25;4.20;;;30.90;41.50;;;;;;5084423;28;20032;-68
2023/06/11 10:33:00;;;;;;;4.53;3.65;;;31.00;41.30;;;;;;5086021;28;20067;-68
2023/06/11 10:35:32;;;;;;;4.85;3.95;;;31.10;40.30;;;;;;5084344;28;20043;-68
2023/06/11 10:38:12;;;;;;;6.10;4.15;;;31.00;40.60;;;;;;5091498;28;20027;-68
2023/06/11 10:40:39;;;;;;;4.38;3.97;;;31.10;40.60;;;;;;5082628;28;20063;-68
2023/06/11 10:43:20;;;;;;;5.20;3.85;;;31.20;40.70;;;;;;5085760;28;20024;-68
2023/06/11 10:45:59;;;;;;;4.10;3.70;;;31.20;39.80;;;;;;5080960;28;20028;-68
2023/06/11 10:48:28;;;;;;;4.22;3.63;;;31.20;39.90;;;;;;5079272;28;20028;-68
2023/06/11 10:51:08;;;;;;;6.60;3.83;;;31.30;38.80;;;;;;5084304;28;20040;-68
2023/06/11 10:53:41;;;;;;;5.70;3.63;;;31.10;39.00;;;;;;5079417;28;20429;-68
2023/06/11 10:56:13;;;;;;;6.38;4.07;;;31.20;39.00;;;;;;5082416;28;20024;-68
2023/06/11 10:58:39;;;;;;;3.80;3.47;;;31.10;39.20;;;;;;5082706;28;20043;-68
2023/06/11 11:01:08;;;;;;;4.05;3.30;;;31.10;39.00;;;;;;5082667;28;20028;-68
2023/06/11 11:03:35;;;;;;;5.10;3.75;;;31.20;39.10;;;;;;5081539;28;20032;-68
2023/06/11 11:06:01;;;;;;;4.15;3.35;;;31.20;39.00;;;;;;5092599;28;20056;-68
2023/06/11 11:08:28;;;;;;;4.63;3.10;;;31.40;39.20;;;;;;5083780;28;20085;-69
2023/06/11 11:10:59;;;;;;;4.55;3.58;;;31.50;38.90;;;;;;5081250;28;20496;-69
2023/06/11 11:13:25;;;;;;;5.38;3.70;;;31.60;38.80;;;;;;5082083;28;20123;-69
2023/06/11 11:15:51;;;;;;;4.40;3.55;;;31.70;38.50;;;;;;5070616;28;20032;-69
2023/06/11 11:18:17;;;;;;;5.95;3.70;;;31.70;38.40;;;;;;5074527;28;20094;-69
2023/06/11 11:20:46;;;;;;;5.13;3.83;;;31.70;38.70;;;;;;5073725;28;20490;-69
2023/06/11 11:23:12;;;;;;;3.95;3.55;;;31.80;38.50;;;;;;5080557;28;20021;-69
2023/06/11 11:25:40;;;;;;;7.07;3.70;;;31.80;38.30;;;;;;5072634;28;20077;-69
2023/06/11 11:28:05;;;;;;;4.78;3.75;;;32.00;37.70;;;;;;5086235;28;20032;-69
2023/06/11 11:30:31;;;;;;;3.92;3.53;;;32.00;37.60;;;;;;5079588;28;20545;-68
2023/06/11 11:32:58;;;;;;;4.22;3.63;;;32.10;37.40;;;;;;5079701;28;20058;-69
2023/06/11 11:35:26;;;;;;;4.38;3.63;;;32.20;36.70;;;;;;5078572;28;20466;-69
2023/06/11 11:37:54;;;;;;;3.50;3.20;;;32.20;36.40;;;;;;5096694;28;20019;-69
2023/06/11 11:40:21;;;;;;;6.65;3.40;;;32.20;36.50;;;;;;5110018;28;20016;-68
2023/06/11 11:42:51;;;;;;;5.00;3.63;;;32.40;36.80;;;;;;5084553;28;20545;-68
2023/06/11 11:45:18;;;;;;;3.67;3.10;;;32.50;36.80;;;;;;5091891;28;20027;-69
2023/06/11 11:47:50;;;;;;;5.93;3.78;;;32.70;36.40;;;;;;5087288;28;20024;-69
2023/06/11 11:50:25;;;;;;;3.80;3.40;;;32.80;35.40;;;;;;5074015;28;20024;-69
2023/06/11 11:53:18;;;;;;;4.25;3.60;;;32.70;35.40;;;;;;5088913;28;20028;-69
2023/06/11 11:55:47;;;;;;;5.97;3.55;;;32.80;35.50;;;;;;5092386;28;20024;-69
2023/06/11 11:58:15;;;;;;;5.05;3.42;;;32.80;35.20;;;;;;5093087;28;20035;-68
2023/06/11 12:00:52;;;;;;;4.47;3.40;;;32.70;34.70;;;;;;5092893;28;20012;-69
2023/06/11 12:03:22;;;;;;;3.72;3.20;;;32.80;35.20;;;;;;5085727;28;20033;-68
2023/06/11 12:06:02;;;;;;;4.78;3.15;;;32.80;35.40;;;;;;5090913;28;20082;-68
2023/06/11 12:08:29;;;;;;;4.97;3.45;;;33.00;35.20;;;;;;5082279;28;20036;-68
2023/06/11 12:10:55;;;;;;;6.60;3.25;;;33.00;34.30;;;;;;5093977;28;20030;-68
2023/06/11 12:13:21;;;;;;;4.53;3.17;;;33.00;33.30;;;;;;5104359;28;20051;-68
2023/06/11 12:15:47;;;;;;;3.50;3.08;;;32.90;33.30;;;;;;5095200;28;20486;-69
2023/06/11 12:18:13;;;;;;;4.40;3.30;;;33.20;33.60;;;;;;5090076;28;20042;-69
2023/06/11 12:20:38;;;;;;;3.47;3.17;;;33.30;33.10;;;;;;5091872;28;20024;-69
2023/06/11 12:23:04;;;;;;;3.40;3.00;;;33.40;32.50;;;;;;5092494;28;20032;-69
2023/06/11 12:25:32;;;;;;;5.57;3.70;;;33.50;32.90;;;;;;5090241;28;20101;-69
2023/06/11 12:27:59;;;;;;;3.60;3.15;;;33.70;32.80;;;;;;5083737;28;20028;-68
2023/06/11 12:30:24;;;;;;;4.40;3.28;;;33.70;33.00;;;;;;5088918;28;20055;-69
2023/06/11 12:32:51;;;;;;;4.05;3.25;;;33.70;33.00;;;;;;5097669;27;20113;-68
2023/06/11 12:35:17;;;;;;;4.05;3.67;;;33.50;33.00;;;;;;5082736;28;20023;-68
2023/06/11 12:37:42;;;;;;;5.28;3.55;;;33.40;33.30;;;;;;5080881;28;20024;-68
2023/06/11 12:40:09;;;;;;;4.93;3.40;;;33.50;33.70;;;;;;5091665;28;20029;-68
2023/06/11 12:42:34;;;;;;;4.15;3.50;;;33.60;33.60;;;;;;5081112;28;20027;-68
2023/06/11 12:45:02;;;;;;;4.82;3.47;;;33.60;33.50;;;;;;5088676;28;20376;-69
2023/06/11 12:47:28;;;;;;;4.13;3.47;;;33.60;33.50;;;;;;5082022;28;20029;-69